Time;durP1;ratioP1;P1;durP2;ratioP2;P2;SDS_P1;SDS_P2;PMS_P1;PMS_P2;Temp;Humidity;BMP_temperature;BMP_pressure;BME280_temperature;BME280_humidity;BME280_pressure;Samples;Min_cycle;Max_cycle;Signal;HPM_P1;HPM_P2
2023/04/12 00:01:05;;;;;;;21.92;13.10;;;18.80;45.10;;;;;;5013264;28;20248;-84
2023/04/12 00:03:33;;;;;;;24.63;14.38;;;18.80;45.10;;;;;;5013630;28;20216;-84
2023/04/12 00:06:06;;;;;;;25.92;13.38;;;18.80;45.20;;;;;;5014015;28;20600;-85
2023/04/12 00:08:34;;;;;;;22.58;12.52;;;18.70;45.10;;;;;;5012812;28;20193;-84
2023/04/12 00:11:01;;;;;;;21.55;12.18;;;18.70;45.10;;;;;;5013160;28;20199;-84
2023/04/12 00:13:29;;;;;;;23.48;13.23;;;18.70;45.20;;;;;;5013090;28;20225;-85
2023/04/12 00:15:57;;;;;;;18.15;11.82;;;18.70;45.30;;;;;;5013278;28;20209;-84
2023/04/12 00:18:24;;;;;;;21.60;12.45;;;18.70;45.40;;;;;;5013574;28;20201;-84
2023/04/12 00:20:52;;;;;;;21.90;13.43;;;18.60;45.30;;;;;;5014218;28;20311;-84
2023/04/12 00:23:19;;;;;;;20.25;12.40;;;18.70;45.40;;;;;;5019110;28;20227;-84
2023/04/12 00:25:46;;;;;;;21.42;12.82;;;18.60;45.40;;;;;;5018786;28;20247;-84
2023/04/12 00:28:14;;;;;;;21.40;12.27;;;18.70;45.70;;;;;;5018532;28;20204;-84
2023/04/12 00:30:41;;;;;;;21.83;12.48;;;18.70;45.70;;;;;;5017545;28;20267;-84
2023/04/12 00:33:10;;;;;;;19.42;12.60;;;18.60;46.20;;;;;;5017662;28;20223;-85
2023/04/12 00:35:37;;;;;;;19.35;11.88;;;18.70;45.80;;;;;;5017614;28;20283;-84
2023/04/12 00:38:09;;;;;;;21.58;12.65;;;18.60;45.80;;;;;;5017711;28;20204;-85
2023/04/12 00:40:42;;;;;;;21.15;11.45;;;18.60;45.90;;;;;;5017405;28;20687;-84
2023/04/12 00:43:17;;;;;;;16.67;11.27;;;18.60;45.90;;;;;;5000014;28;20278;-85
2023/04/12 00:45:44;;;;;;;18.65;11.48;;;18.60;45.90;;;;;;5016204;28;20196;-84
2023/04/12 00:48:13;;;;;;;19.95;11.90;;;18.60;45.90;;;;;;5016478;28;20201;-84
2023/04/12 00:50:43;;;;;;;19.50;11.25;;;18.60;46.00;;;;;;5016352;28;20223;-84
2023/04/12 00:53:12;;;;;;;18.08;10.68;;;18.60;46.00;;;;;;5016071;28;20216;-85
2023/04/12 00:55:39;;;;;;;17.52;11.10;;;18.60;46.10;;;;;;4999554;28;20204;-84
2023/04/12 00:58:07;;;;;;;15.90;9.95;;;18.60;46.60;;;;;;5016157;28;20197;-84
2023/04/12 01:00:34;;;;;;;17.45;10.48;;;18.60;46.20;;;;;;5015818;28;20304;-84
2023/04/12 01:03:04;;;;;;;16.55;10.23;;;18.60;46.20;;;;;;5015349;28;20228;-85
2023/04/12 01:05:35;;;;;;;16.30;10.38;;;18.60;46.20;;;;;;5015964;28;20239;-84
2023/04/12 01:08:05;;;;;;;15.98;10.27;;;18.60;46.70;;;;;;4999255;28;20192;-84
2023/04/12 01:10:37;;;;;;;17.83;10.57;;;18.60;46.30;;;;;;5015348;28;20197;-85
2023/04/12 01:13:09;;;;;;;16.17;10.15;;;18.60;46.30;;;;;;5015607;28;20221;-84
2023/04/12 01:15:39;;;;;;;15.65;9.77;;;18.50;46.20;;;;;;5055064;22;20315;-80
2023/04/12 01:18:09;;;;;;;15.25;9.85;;;18.50;46.20;;;;;;5015674;28;20227;-80
2023/04/12 01:20:43;;;;;;;13.40;9.35;;;18.50;46.30;;;;;;5015818;28;20208;-79
2023/04/12 01:23:15;;;;;;;14.65;9.77;;;18.50;46.30;;;;;;5015684;28;20238;-79
2023/04/12 01:25:59;;;;;;;17.98;10.38;;;18.50;46.40;;;;;;5014950;28;20208;-79
2023/04/12 01:28:33;;;;;;;15.40;10.30;;;18.50;46.40;;;;;;5014980;28;20195;-79
2023/04/12 01:31:01;;;;;;;16.27;9.40;;;18.50;46.40;;;;;;5015063;28;20597;-79
2023/04/12 01:33:30;;;;;;;15.50;9.60;;;18.50;46.50;;;;;;5014034;28;20271;-79
2023/04/12 01:35:58;;;;;;;12.68;8.43;;;18.50;46.60;;;;;;4999576;28;20231;-79
2023/04/12 01:38:26;;;;;;;12.32;8.60;;;18.50;46.60;;;;;;5015165;28;20197;-79
2023/04/12 01:40:53;;;;;;;14.68;8.65;;;18.50;46.60;;;;;;4998732;28;20707;-79
2023/04/12 01:43:20;;;;;;;15.43;9.13;;;18.50;46.70;;;;;;5015037;28;20726;-79
2023/04/12 01:45:48;;;;;;;14.05;8.55;;;18.50;46.70;;;;;;5015087;28;20211;-79
2023/04/12 01:48:16;;;;;;;12.75;8.48;;;18.50;46.80;;;;;;5014966;28;20200;-79
2023/04/12 01:50:44;;;;;;;13.90;8.43;;;18.50;46.70;;;;;;5015035;28;20671;-79
2023/04/12 01:53:14;;;;;;;14.38;8.63;;;18.50;46.80;;;;;;4998319;28;20248;-79
2023/04/12 01:55:42;;;;;;;14.15;8.50;;;18.50;46.80;;;;;;5014278;28;20196;-79
2023/04/12 01:58:11;;;;;;;12.57;7.70;;;18.50;46.90;;;;;;5014785;28;20193;-79
2023/04/12 02:00:38;;;;;;;14.98;9.30;;;18.50;46.90;;;;;;5014309;28;20223;-80
2023/04/12 02:03:07;;;;;;;16.58;8.43;;;18.40;46.90;;;;;;5013910;28;20224;-80
2023/04/12 02:05:34;;;;;;;12.35;7.70;;;18.40;46.90;;;;;;5014130;28;20203;-79
2023/04/12 02:08:02;;;;;;;13.93;8.15;;;18.40;46.90;;;;;;5014279;28;20291;-79
2023/04/12 02:10:30;;;;;;;15.10;8.43;;;18.40;46.90;;;;;;5013895;28;20192;-80
2023/04/12 02:13:01;;;;;;;12.73;8.02;;;18.50;47.00;;;;;;5013994;28;20224;-80
2023/04/12 02:15:30;;;;;;;11.40;7.38;;;18.40;46.80;;;;;;5013760;28;20274;-80
2023/04/12 02:18:00;;;;;;;11.23;7.18;;;18.40;46.70;;;;;;5013903;28;20691;-80
2023/04/12 02:20:28;;;;;;;11.35;7.28;;;18.40;46.70;;;;;;5014180;28;20221;-80
2023/04/12 02:22:56;;;;;;;11.75;7.40;;;18.40;46.60;;;;;;5013913;28;20263;-80
2023/04/12 02:25:23;;;;;;;13.10;7.30;;;18.40;46.80;;;;;;4997558;28;20734;-80
2023/04/12 02:27:50;;;;;;;11.02;7.22;;;18.30;46.80;;;;;;4997428;28;20193;-80
2023/04/12 02:30:18;;;;;;;9.80;7.30;;;18.40;46.90;;;;;;5014205;28;20208;-80
2023/04/12 02:32:51;;;;;;;11.85;7.10;;;18.40;46.90;;;;;;5014609;28;20223;-80
2023/04/12 02:35:25;;;;;;;9.88;7.32;;;18.30;46.90;;;;;;5014982;28;20193;-80
2023/04/12 02:38:00;;;;;;;11.02;6.70;;;18.30;46.80;;;;;;5013961;28;20689;-80
2023/04/12 02:40:29;;;;;;;8.48;6.32;;;18.30;46.70;;;;;;5014713;28;20612;-80
2023/04/12 02:42:57;;;;;;;11.05;6.80;;;18.30;46.70;;;;;;5013520;28;20304;-80
2023/04/12 02:45:26;;;;;;;12.13;7.68;;;18.30;46.70;;;;;;5013248;28;20633;-80
2023/04/12 02:47:53;;;;;;;11.57;6.93;;;18.30;46.80;;;;;;5013525;28;20203;-80
2023/04/12 02:50:25;;;;;;;10.30;6.53;;;18.30;46.80;;;;;;5014318;28;20209;-80
2023/04/12 02:53:01;;;;;;;11.13;6.78;;;18.30;46.70;;;;;;5014743;28;20216;-80
2023/04/12 02:55:29;;;;;;;10.10;6.80;;;18.30;46.80;;;;;;5013869;28;20201;-80
2023/04/12 02:57:57;;;;;;;10.88;6.30;;;18.30;46.80;;;;;;5013465;28;20200;-80
2023/04/12 03:00:26;;;;;;;9.73;6.43;;;18.30;46.80;;;;;;5013609;28;20561;-80
2023/04/12 03:03:00;;;;;;;9.52;6.70;;;18.30;46.90;;;;;;5014759;28;20240;-79
2023/04/12 03:05:29;;;;;;;11.40;6.60;;;18.30;46.80;;;;;;5013700;28;20201;-80
2023/04/12 03:07:57;;;;;;;11.32;6.57;;;18.40;46.90;;;;;;4997326;28;20693;-80
2023/04/12 03:10:34;;;;;;;9.15;6.13;;;18.30;46.80;;;;;;5013537;28;20643;-80
2023/04/12 03:13:03;;;;;;;10.20;6.40;;;18.30;46.70;;;;;;5012984;28;20691;-80
2023/04/12 03:15:37;;;;;;;11.25;7.00;;;18.30;46.80;;;;;;5013709;28;20207;-80
2023/04/12 03:18:04;;;;;;;11.00;6.60;;;18.30;47.40;;;;;;5012934;28;20204;-80
2023/04/12 03:20:42;;;;;;;9.57;6.47;;;18.30;46.80;;;;;;5013626;28;20232;-81
2023/04/12 03:23:10;;;;;;;10.35;6.13;;;18.30;46.90;;;;;;4997090;28;20217;-80
2023/04/12 03:25:44;;;;;;;9.52;6.35;;;18.30;46.90;;;;;;5013468;28;20247;-80
2023/04/12 03:28:44;;;;;;;11.43;6.85;;;18.30;47.00;;;;;;5002907;28;20698;-80
2023/04/12 03:31:12;;;;;;;10.25;6.43;;;18.30;47.00;;;;;;5013974;28;20207;-80
2023/04/12 03:33:43;;;;;;;8.77;6.00;;;18.30;47.10;;;;;;5013336;28;20619;-80
2023/04/12 03:36:21;;;;;;;8.55;6.50;;;18.30;47.00;;;;;;5013622;28;20651;-80
2023/04/12 03:38:53;;;;;;;10.50;6.22;;;18.30;47.10;;;;;;5013772;28;20250;-80
2023/04/12 03:41:23;;;;;;;9.32;6.25;;;18.30;47.20;;;;;;5012796;28;20216;-80
2023/04/12 03:43:50;;;;;;;9.40;6.45;;;18.30;47.30;;;;;;5013039;28;20217;-81
2023/04/12 03:46:19;;;;;;;7.55;5.57;;;18.40;47.20;;;;;;5013065;28;20280;-80
2023/04/12 03:48:54;;;;;;;10.23;6.13;;;18.40;47.20;;;;;;5017196;28;20200;-80
2023/04/12 03:51:25;;;;;;;9.10;6.00;;;18.30;47.20;;;;;;5019915;28;20204;-80
2023/04/12 03:53:57;;;;;;;8.15;6.07;;;18.40;47.30;;;;;;5021734;28;20196;-80
2023/04/12 03:56:26;;;;;;;8.20;5.47;;;18.40;47.20;;;;;;5036768;28;20200;-81
2023/04/12 03:58:55;;;;;;;8.13;5.50;;;18.40;47.20;;;;;;5039438;28;20223;-81
2023/04/12 04:01:23;;;;;;;9.02;5.50;;;18.40;47.30;;;;;;5004079;28;20555;-81
2023/04/12 04:03:51;;;;;;;9.15;5.90;;;18.40;47.20;;;;;;5022561;28;20281;-80
2023/04/12 04:06:23;;;;;;;8.57;5.78;;;18.30;47.30;;;;;;5023325;28;20271;-81
2023/04/12 04:08:53;;;;;;;7.90;5.22;;;18.40;47.30;;;;;;5007004;28;20247;-81
2023/04/12 04:11:21;;;;;;;8.27;5.45;;;18.40;47.20;;;;;;5022900;28;20225;-80
2023/04/12 04:13:55;;;;;;;8.68;5.53;;;18.40;47.70;;;;;;5021590;28;20239;-81
2023/04/12 04:16:23;;;;;;;9.20;5.35;;;18.40;47.10;;;;;;5005959;28;20193;-81
2023/04/12 04:18:51;;;;;;;8.32;5.95;;;18.40;47.20;;;;;;5021888;28;20251;-80
2023/04/12 04:21:21;;;;;;;7.13;5.05;;;18.40;47.10;;;;;;5021143;28;20701;-81
2023/04/12 04:23:51;;;;;;;10.30;5.60;;;18.40;47.20;;;;;;5021158;28;20253;-81
2023/04/12 04:26:19;;;;;;;7.88;4.97;;;18.40;47.10;;;;;;5019797;28;20200;-81
2023/04/12 04:29:00;;;;;;;8.00;5.22;;;18.40;47.10;;;;;;5016680;28;20203;-81
2023/04/12 04:31:35;;;;;;;7.53;5.20;;;18.50;47.20;;;;;;5016618;28;20192;-81
2023/04/12 04:34:05;;;;;;;7.68;5.25;;;18.40;47.00;;;;;;5016957;28;20213;-80
2023/04/12 04:36:36;;;;;;;7.72;4.82;;;18.40;47.00;;;;;;5017155;28;20224;-81
2023/04/12 04:39:05;;;;;;;6.18;4.60;;;18.50;47.10;;;;;;5016550;28;20204;-81
2023/04/12 04:41:40;;;;;;;7.35;4.60;;;18.50;47.00;;;;;;5016417;28;20220;-81
2023/04/12 04:44:14;;;;;;;6.70;4.45;;;18.50;47.00;;;;;;5016136;28;20283;-81
2023/04/12 04:46:52;;;;;;;6.38;4.90;;;18.40;46.90;;;;;;5015736;28;20228;-81
2023/04/12 04:49:20;;;;;;;7.18;4.72;;;18.40;47.00;;;;;;5015588;28;20201;-81
2023/04/12 04:51:47;;;;;;;8.38;4.57;;;18.50;47.10;;;;;;5015587;28;20197;-81
2023/04/12 04:54:16;;;;;;;8.45;4.78;;;18.50;47.00;;;;;;5015487;28;20197;-80
2023/04/12 04:56:44;;;;;;;7.03;4.47;;;18.50;47.00;;;;;;5016532;28;20201;-81
2023/04/12 04:59:16;;;;;;;6.85;4.80;;;18.40;46.90;;;;;;5015402;28;20733;-81
2023/04/12 05:01:44;;;;;;;6.47;4.35;;;18.50;47.10;;;;;;5015359;28;20213;-81
2023/04/12 05:04:11;;;;;;;5.38;4.50;;;18.40;47.00;;;;;;5015161;28;20323;-81
2023/04/12 05:06:40;;;;;;;7.43;4.95;;;18.50;47.50;;;;;;5015849;28;20548;-81
2023/04/12 05:09:09;;;;;;;5.03;4.15;;;18.40;46.90;;;;;;5015132;28;20247;-81
2023/04/12 05:11:43;;;;;;;5.72;4.28;;;18.40;47.00;;;;;;5016072;28;20212;-81
2023/04/12 05:14:12;;;;;;;6.00;4.57;;;18.50;47.10;;;;;;5015404;28;20557;-81
2023/04/12 05:16:42;;;;;;;6.75;4.70;;;18.40;46.80;;;;;;5015694;28;20243;-81
2023/04/12 05:19:12;;;;;;;5.00;4.28;;;18.50;47.00;;;;;;5015483;28;20678;-81
2023/04/12 05:21:40;;;;;;;6.22;4.60;;;18.50;47.10;;;;;;5015795;28;20295;-82
2023/04/12 05:24:08;;;;;;;6.53;4.32;;;18.50;47.20;;;;;;4999301;28;20221;-81
2023/04/12 05:26:38;;;;;;;5.75;4.45;;;18.50;47.10;;;;;;4999284;28;20197;-81
2023/04/12 05:29:10;;;;;;;5.38;4.03;;;18.50;47.20;;;;;;4999898;28;20220;-81
2023/04/12 05:31:38;;;;;;;5.07;4.07;;;18.40;47.00;;;;;;5015809;28;20279;-81
2023/04/12 05:34:12;;;;;;;6.18;4.50;;;18.50;47.10;;;;;;5015770;28;20227;-81
2023/04/12 05:36:46;;;;;;;6.32;4.30;;;18.50;47.10;;;;;;5000373;28;20197;-80
2023/04/12 05:39:14;;;;;;;5.13;3.90;;;18.50;47.10;;;;;;5015330;28;20201;-81
2023/04/12 05:41:41;;;;;;;5.20;3.70;;;18.50;47.20;;;;;;4999079;28;20213;-81
2023/04/12 05:44:09;;;;;;;5.07;3.65;;;18.40;47.00;;;;;;5014951;28;20212;-81
2023/04/12 05:46:37;;;;;;;5.65;3.95;;;18.50;47.20;;;;;;5014499;28;20197;-81
2023/04/12 05:49:05;;;;;;;5.55;3.95;;;18.50;47.20;;;;;;5014639;28;20651;-81
2023/04/12 05:51:34;;;;;;;6.00;4.00;;;18.50;47.10;;;;;;5014691;28;20718;-81
2023/04/12 05:54:05;;;;;;;5.75;4.03;;;18.50;47.10;;;;;;5014634;28;20251;-81
2023/04/12 05:56:33;;;;;;;4.50;3.65;;;18.50;47.10;;;;;;5014898;28;20204;-80
2023/04/12 05:59:01;;;;;;;6.70;3.97;;;18.50;47.10;;;;;;4998905;28;20203;-81
2023/04/12 06:01:30;;;;;;;4.82;3.30;;;18.50;47.00;;;;;;5015086;28;20236;-80
2023/04/12 06:03:57;;;;;;;5.22;3.88;;;18.50;47.00;;;;;;5015354;28;20224;-81
2023/04/12 06:06:24;;;;;;;4.47;3.67;;;18.50;47.00;;;;;;5015113;28;20234;-82
2023/04/12 06:08:52;;;;;;;6.93;3.78;;;18.50;47.00;;;;;;5014443;28;20258;-81
2023/04/12 06:11:19;;;;;;;4.72;3.55;;;18.60;47.00;;;;;;5014311;28;20216;-81
2023/04/12 06:13:46;;;;;;;4.70;3.83;;;18.60;46.90;;;;;;5013904;28;20267;-81
2023/04/12 06:16:13;;;;;;;5.28;3.45;;;18.60;46.90;;;;;;5014318;28;20196;-81
2023/04/12 06:18:41;;;;;;;4.00;3.40;;;18.60;46.80;;;;;;5013554;28;20197;-81
2023/04/12 06:21:08;;;;;;;5.07;3.67;;;18.60;46.90;;;;;;5013955;28;20232;-81
2023/04/12 06:23:35;;;;;;;3.92;3.25;;;18.60;46.80;;;;;;4997497;28;20264;-81
2023/04/12 06:26:04;;;;;;;4.35;3.05;;;18.60;46.80;;;;;;5013799;28;20223;-81
2023/04/12 06:28:32;;;;;;;5.13;3.85;;;18.60;46.80;;;;;;5015142;28;20201;-81
2023/04/12 06:30:59;;;;;;;4.20;3.63;;;18.60;46.70;;;;;;5015024;28;20205;-81
2023/04/12 06:33:31;;;;;;;3.95;3.25;;;18.70;46.80;;;;;;5014814;28;20220;-81
2023/04/12 06:35:59;;;;;;;4.65;3.50;;;18.80;46.60;;;;;;5015037;28;20680;-81
2023/04/12 06:38:26;;;;;;;3.90;3.33;;;18.90;46.40;;;;;;5014370;28;20204;-80
2023/04/12 06:40:54;;;;;;;4.38;3.42;;;18.90;46.30;;;;;;5014032;28;20201;-80
2023/04/12 06:43:22;;;;;;;4.28;3.30;;;18.90;46.40;;;;;;5014295;28;20224;-80
2023/04/12 06:45:50;;;;;;;4.65;3.40;;;18.80;46.40;;;;;;5014340;28;20204;-80
2023/04/12 06:48:17;;;;;;;6.32;3.90;;;18.80;46.40;;;;;;5014140;28;20228;-80
2023/04/12 06:50:45;;;;;;;5.72;3.70;;;18.80;46.60;;;;;;4998362;28;20226;-80
2023/04/12 06:53:12;;;;;;;3.85;3.20;;;18.80;46.60;;;;;;5014491;28;20225;-80
2023/04/12 06:55:39;;;;;;;3.72;3.28;;;18.80;46.70;;;;;;5015106;28;20621;-80
2023/04/12 06:58:06;;;;;;;3.95;2.92;;;18.80;46.60;;;;;;5014806;28;20196;-80
2023/04/12 07:00:35;;;;;;;4.28;3.10;;;18.80;46.60;;;;;;5014549;28;20541;-80
2023/04/12 07:03:02;;;;;;;3.58;3.00;;;18.80;46.70;;;;;;5013538;28;20242;-77
2023/04/12 07:05:29;;;;;;;3.15;2.85;;;18.80;46.70;;;;;;5014031;28;20679;-76
2023/04/12 07:07:56;;;;;;;3.72;3.03;;;18.80;46.70;;;;;;5013794;28;20205;-81
2023/04/12 07:10:24;;;;;;;3.72;3.08;;;18.80;46.60;;;;;;5014356;28;20232;-78
2023/04/12 07:12:51;;;;;;;4.43;3.50;;;18.80;46.60;;;;;;5012968;28;20220;-78
2023/04/12 07:15:19;;;;;;;3.63;3.00;;;18.80;46.60;;;;;;5013321;28;20201;-78
2023/04/12 07:17:48;;;;;;;3.65;3.08;;;18.80;46.60;;;;;;5013176;28;20259;-78
2023/04/12 07:20:16;;;;;;;4.53;3.17;;;18.80;46.60;;;;;;5013149;28;20252;-78
2023/04/12 07:22:43;;;;;;;4.13;2.83;;;18.90;46.60;;;;;;5013391;28;20224;-78
2023/04/12 07:25:10;;;;;;;3.53;2.88;;;18.90;46.60;;;;;;5013745;28;20569;-80
2023/04/12 07:27:37;;;;;;;4.90;3.08;;;18.90;46.60;;;;;;5013863;28;20204;-78
2023/04/12 07:30:07;;;;;;;4.07;3.13;;;18.90;46.40;;;;;;5015056;28;20204;-78
2023/04/12 07:32:34;;;;;;;3.80;2.97;;;18.90;46.50;;;;;;5017780;28;20588;-79
2023/04/12 07:35:02;;;;;;;4.78;3.13;;;18.90;46.60;;;;;;5018625;28;20188;-79
2023/04/12 07:37:29;;;;;;;5.15;2.88;;;19.00;46.80;;;;;;5017415;28;20201;-79
2023/04/12 07:39:56;;;;;;;3.72;3.08;;;19.00;47.00;;;;;;5017093;28;20203;-78
2023/04/12 07:42:23;;;;;;;3.42;2.70;;;19.00;47.20;;;;;;5001031;28;20221;-78
2023/04/12 07:44:50;;;;;;;3.55;2.72;;;19.00;47.20;;;;;;5017183;28;20209;-78
2023/04/12 07:47:18;;;;;;;4.50;3.10;;;19.00;47.20;;;;;;5017514;28;20254;-78
2023/04/12 07:49:44;;;;;;;5.03;2.80;;;19.00;47.20;;;;;;5017143;28;20197;-78
2023/04/12 07:52:13;;;;;;;3.55;2.72;;;19.00;47.30;;;;;;5017360;28;20279;-78
2023/04/12 07:54:41;;;;;;;4.70;3.00;;;19.00;47.30;;;;;;5017278;28;20719;-79
2023/04/12 07:57:08;;;;;;;3.40;2.72;;;19.00;47.20;;;;;;5000776;28;20614;-79
2023/04/12 07:59:35;;;;;;;3.60;2.60;;;19.00;47.40;;;;;;5018270;28;20259;-78
2023/04/12 08:02:04;;;;;;;4.35;2.72;;;19.00;47.30;;;;;;5020667;28;20193;-78
2023/04/12 08:04:32;;;;;;;3.38;2.60;;;19.00;47.40;;;;;;5017323;28;20204;-78
2023/04/12 08:06:59;;;;;;;2.65;2.40;;;19.00;47.40;;;;;;5019675;28;20204;-78
2023/04/12 08:09:27;;;;;;;3.20;2.90;;;19.00;47.30;;;;;;5016329;28;20232;-78
2023/04/12 08:11:55;;;;;;;4.30;2.80;;;19.10;47.40;;;;;;5016523;28;20300;-78
2023/04/12 08:14:22;;;;;;;4.55;2.65;;;19.10;47.40;;;;;;5016421;28;20640;-78
2023/04/12 08:16:50;;;;;;;3.20;2.53;;;19.10;47.50;;;;;;5016384;28;20271;-78
2023/04/12 08:19:18;;;;;;;3.60;2.55;;;19.10;47.40;;;;;;5016256;28;20280;-78
2023/04/12 08:21:45;;;;;;;4.03;2.83;;;19.10;47.40;;;;;;5016204;28;20569;-78
2023/04/12 08:24:12;;;;;;;3.30;2.53;;;19.10;47.50;;;;;;5016935;28;20536;-78
2023/04/12 08:26:41;;;;;;;3.17;2.50;;;19.10;47.40;;;;;;5016586;28;20659;-78
2023/04/12 08:29:08;;;;;;;4.53;2.65;;;19.10;47.40;;;;;;5015911;28;20201;-78
2023/04/12 08:31:35;;;;;;;3.80;2.53;;;19.20;47.50;;;;;;5015961;28;20220;-78
2023/04/12 08:34:02;;;;;;;2.80;2.50;;;19.20;47.50;;;;;;5015804;28;20222;-78
2023/04/12 08:36:29;;;;;;;3.47;2.50;;;19.20;47.50;;;;;;5015859;28;20743;-78
2023/04/12 08:38:58;;;;;;;3.65;2.63;;;19.30;47.70;;;;;;5015804;28;20217;-79
2023/04/12 08:41:26;;;;;;;2.42;2.08;;;19.30;47.60;;;;;;5016868;28;20195;-78
2023/04/12 08:43:55;;;;;;;2.58;2.00;;;19.30;47.60;;;;;;5015486;28;20216;-78
2023/04/12 08:46:22;;;;;;;3.00;2.67;;;19.30;47.40;;;;;;5015773;28;20711;-77
2023/04/12 08:48:52;;;;;;;6.13;2.65;;;19.40;47.60;;;;;;5015729;28;20259;-77
2023/04/12 08:51:20;;;;;;;2.63;2.20;;;19.40;47.50;;;;;;5015827;28;20659;-77
2023/04/12 08:53:47;;;;;;;3.78;2.65;;;19.40;47.30;;;;;;5016576;28;20217;-79
2023/04/12 08:56:17;;;;;;;3.08;2.20;;;19.50;47.40;;;;;;5016588;28;20201;-79
2023/04/12 08:58:47;;;;;;;3.88;2.50;;;19.60;47.20;;;;;;5016752;28;20200;-79
2023/04/12 09:01:17;;;;;;;3.03;2.30;;;19.60;47.10;;;;;;5016447;28;20189;-81
2023/04/12 09:03:45;;;;;;;3.88;2.50;;;19.60;47.10;;;;;;5016334;28;20221;-80
2023/04/12 09:06:12;;;;;;;2.92;2.33;;;19.60;47.40;;;;;;5016847;28;20208;-82
2023/04/12 09:08:52;;;;;;;2.70;2.33;;;19.70;47.20;;;;;;5016448;28;20584;-82
2023/04/12 09:11:23;;;;;;;4.03;2.10;;;19.70;47.00;;;;;;5016810;28;20247;-83
2023/04/12 09:13:50;;;;;;;2.65;2.03;;;19.70;47.10;;;;;;5016961;28;20224;-83
2023/04/12 09:16:33;;;;;;;2.30;2.10;;;19.70;47.40;;;;;;5018132;28;20193;-84
2023/04/12 09:19:01;;;;;;;3.45;2.30;;;19.70;47.50;;;;;;5017193;28;20212;-83
2023/04/12 09:21:30;;;;;;;2.92;2.22;;;19.70;47.30;;;;;;5016912;28;20207;-83
2023/04/12 09:24:08;;;;;;;5.30;2.13;;;19.80;47.30;;;;;;5017718;28;20248;-83
2023/04/12 09:26:35;;;;;;;4.53;2.47;;;19.70;47.30;;;;;;5016022;28;20217;-83
2023/04/12 09:29:01;;;;;;;4.20;2.33;;;19.70;47.50;;;;;;5016023;28;20215;-83
2023/04/12 09:31:30;;;;;;;6.18;2.60;;;19.70;47.60;;;;;;5015875;28;20243;-81
2023/04/12 09:34:06;;;;;;;3.38;2.53;;;19.70;47.70;;;;;;5016136;28;20221;-82
2023/04/12 09:36:37;;;;;;;3.50;2.35;;;19.70;47.80;;;;;;5017213;28;20203;-82
2023/04/12 09:39:04;;;;;;;2.65;2.20;;;19.70;48.00;;;;;;5015554;28;20655;-80
2023/04/12 09:41:32;;;;;;;3.72;2.38;;;19.70;47.90;;;;;;5015587;28;20254;-80
2023/04/12 09:43:59;;;;;;;5.05;2.53;;;19.60;47.80;;;;;;5015471;28;20229;-80
2023/04/12 09:46:26;;;;;;;4.43;2.55;;;19.70;47.90;;;;;;5015242;28;20205;-80
2023/04/12 09:48:57;;;;;;;3.47;2.33;;;19.60;47.70;;;;;;5015473;28;20715;-80
2023/04/12 09:51:27;;;;;;;2.35;2.10;;;19.60;47.70;;;;;;5015589;28;20200;-80
2023/04/12 09:53:58;;;;;;;2.80;2.05;;;19.70;47.70;;;;;;5014254;28;20251;-80
2023/04/12 09:56:25;;;;;;;3.42;2.20;;;19.70;47.80;;;;;;5014864;28;20201;-80
2023/04/12 09:58:53;;;;;;;3.13;2.17;;;19.70;47.80;;;;;;5015149;28;20205;-80
2023/04/12 10:01:20;;;;;;;3.17;2.30;;;19.70;47.70;;;;;;5016636;28;20322;-80
2023/04/12 10:03:47;;;;;;;3.53;2.35;;;19.70;47.60;;;;;;5017201;28;20229;-81
2023/04/12 10:06:17;;;;;;;3.22;2.45;;;19.70;47.60;;;;;;5016985;28;20204;-81
2023/04/12 10:08:44;;;;;;;4.07;2.03;;;19.70;47.50;;;;;;5016145;28;20295;-81
2023/04/12 10:11:11;;;;;;;2.67;2.13;;;19.70;47.40;;;;;;5015574;28;20332;-81
2023/04/12 10:13:39;;;;;;;3.33;2.78;;;19.80;47.50;;;;;;5014545;28;20220;-81
2023/04/12 10:16:06;;;;;;;3.95;2.42;;;19.80;47.40;;;;;;5015209;28;20566;-81
2023/04/12 10:18:34;;;;;;;3.35;2.25;;;19.80;47.40;;;;;;5015896;28;20200;-81
2023/04/12 10:21:01;;;;;;;4.18;2.20;;;19.90;47.50;;;;;;5023513;28;20203;-81
2023/04/12 10:23:30;;;;;;;3.28;2.20;;;19.90;47.00;;;;;;5021221;28;20687;-81
2023/04/12 10:25:57;;;;;;;3.35;2.17;;;19.90;47.00;;;;;;5014847;28;20192;-81
2023/04/12 10:28:25;;;;;;;3.65;2.40;;;20.00;47.00;;;;;;5015097;28;20197;-81
2023/04/12 10:30:53;;;;;;;3.58;2.55;;;20.10;46.80;;;;;;5014504;28;20656;-80
2023/04/12 10:33:24;;;;;;;2.78;2.22;;;20.00;46.60;;;;;;5014488;28;20221;-81
2023/04/12 10:35:54;;;;;;;4.05;2.55;;;20.10;46.80;;;;;;5014215;28;20189;-81
2023/04/12 10:38:23;;;;;;;4.10;2.38;;;20.10;46.80;;;;;;5014183;28;20702;-81
2023/04/12 10:41:12;;;;;;;4.47;2.65;;;20.20;46.90;;;;;;5013971;28;20292;-81
2023/04/12 10:43:40;;;;;;;6.45;2.80;;;20.20;46.60;;;;;;5013879;28;20685;-81
2023/04/12 10:46:07;;;;;;;5.15;2.60;;;20.30;46.80;;;;;;5013766;28;20204;-81
2023/04/12 10:48:35;;;;;;;5.93;2.92;;;20.30;46.80;;;;;;5013677;28;20201;-81
2023/04/12 10:51:12;;;;;;;4.22;2.70;;;20.40;46.90;;;;;;4997682;28;20200;-81
2023/04/12 10:53:40;;;;;;;4.05;2.72;;;20.60;46.60;;;;;;5013685;28;20244;-81
2023/04/12 10:56:39;;;;;;;5.20;2.75;;;20.60;46.50;;;;;;5014204;28;20200;-82
2023/04/12 10:59:06;;;;;;;5.22;2.42;;;20.60;46.30;;;;;;5014326;28;20573;-83
2023/04/12 11:02:09;;;;;;;5.32;2.60;;;20.60;46.70;;;;;;5014759;28;20192;-83
2023/04/12 11:04:37;;;;;;;4.68;2.45;;;20.70;46.30;;;;;;5014700;28;20229;-83
2023/04/12 11:07:12;;;;;;;3.40;2.30;;;20.70;46.80;;;;;;5014852;28;20199;-86
2023/04/12 11:10:13;;;;;;;3.72;2.40;;;20.80;46.00;;;;;;5008306;28;20231;-85
2023/04/12 11:12:43;;;;;;;4.50;2.60;;;20.80;49.00;;;;;;5032932;28;20212;-82
2023/04/12 11:15:12;;;;;;;4.10;2.33;;;20.80;48.60;;;;;;5016198;28;20201;-86
2023/04/12 11:17:54;;;;;;;3.45;2.10;;;20.90;48.90;;;;;;5015226;28;20192;-84
2023/04/12 11:20:21;;;;;;;4.30;2.45;;;20.90;48.70;;;;;;5015659;28;20192;-83
2023/04/12 11:22:48;;;;;;;3.72;2.08;;;20.90;48.70;;;;;;5016091;28;20231;-84
2023/04/12 11:25:16;;;;;;;3.95;2.40;;;21.00;48.40;;;;;;5015802;28;20250;-82
2023/04/12 11:27:50;;;;;;;3.42;1.98;;;21.00;48.20;;;;;;5016676;28;20207;-84
2023/04/12 11:30:18;;;;;;;3.90;2.33;;;21.00;47.80;;;;;;5017471;28;20180;-85
2023/04/12 11:32:46;;;;;;;3.63;2.40;;;21.10;47.50;;;;;;5013885;28;20248;-86
2023/04/12 11:35:14;;;;;;;5.30;2.30;;;21.10;47.00;;;;;;5015733;28;20193;-82
2023/04/12 11:37:42;;;;;;;2.65;1.90;;;21.20;46.70;;;;;;5017344;28;20204;-82
2023/04/12 11:40:10;;;;;;;4.05;2.40;;;21.20;46.60;;;;;;5018208;28;20200;-82
2023/04/12 11:42:37;;;;;;;2.72;2.00;;;21.20;46.50;;;;;;5016872;28;20220;-81
2023/04/12 11:45:06;;;;;;;2.88;1.88;;;21.20;46.50;;;;;;5016873;28;20213;-81
2023/04/12 11:47:34;;;;;;;2.50;1.90;;;21.20;46.90;;;;;;5017279;28;20209;-81
2023/04/12 11:50:01;;;;;;;3.80;2.15;;;21.20;46.70;;;;;;5014942;28;20296;-81
2023/04/12 11:52:30;;;;;;;2.63;2.05;;;21.20;46.30;;;;;;5014600;28;20267;-81
2023/04/12 11:54:59;;;;;;;2.80;1.90;;;21.20;46.10;;;;;;5015044;28;20743;-81
2023/04/12 11:57:27;;;;;;;3.80;1.83;;;21.30;46.10;;;;;;5014764;28;20208;-81
2023/04/12 11:59:57;;;;;;;4.50;2.03;;;21.30;46.00;;;;;;5015709;28;20232;-81
2023/04/12 12:02:26;;;;;;;2.00;1.70;;;21.30;46.20;;;;;;5016943;28;20328;-83
2023/04/12 12:04:54;;;;;;;2.97;1.80;;;21.30;45.80;;;;;;5016511;28;20209;-82
2023/04/12 12:07:22;;;;;;;3.95;2.30;;;21.30;45.80;;;;;;5001126;28;20211;-82
2023/04/12 12:09:49;;;;;;;2.97;2.13;;;21.30;45.80;;;;;;5016303;28;20282;-82
2023/04/12 12:12:17;;;;;;;2.97;1.60;;;21.30;45.60;;;;;;5016035;28;20227;-82
2023/04/12 12:14:46;;;;;;;2.70;2.10;;;21.30;45.70;;;;;;5016659;28;20205;-82
2023/04/12 12:17:14;;;;;;;2.00;1.50;;;21.30;45.50;;;;;;5016636;28;20267;-82
2023/04/12 12:19:43;;;;;;;2.42;1.92;;;21.30;45.60;;;;;;5020849;28;20201;-82
2023/04/12 12:22:14;;;;;;;3.20;2.10;;;21.30;45.40;;;;;;5022857;28;20275;-82
2023/04/12 12:24:46;;;;;;;2.47;2.10;;;21.30;45.40;;;;;;5020952;28;20667;-82
2023/04/12 12:27:20;;;;;;;2.25;2.00;;;21.30;45.30;;;;;;5021224;28;20204;-82
2023/04/12 12:29:52;;;;;;;2.55;2.17;;;21.40;45.30;;;;;;5021741;28;20200;-81
2023/04/12 12:32:22;;;;;;;3.17;2.17;;;21.40;45.20;;;;;;5021646;28;20245;-81
2023/04/12 12:35:00;;;;;;;1.92;1.73;;;21.40;45.20;;;;;;5022809;28;20189;-82
2023/04/12 12:37:28;;;;;;;3.05;1.92;;;21.40;45.00;;;;;;5022283;28;20198;-83
2023/04/12 12:40:06;;;;;;;2.33;1.77;;;21.50;45.10;;;;;;5023325;28;20686;-82
2023/04/12 12:42:34;;;;;;;1.73;1.58;;;21.50;45.10;;;;;;5022564;28;20319;-83
2023/04/12 12:45:05;;;;;;;1.80;1.50;;;21.50;44.90;;;;;;5023542;28;20220;-83
2023/04/12 12:47:32;;;;;;;2.25;1.80;;;21.50;45.00;;;;;;5024082;28;20192;-81
2023/04/12 12:50:01;;;;;;;2.17;1.73;;;21.50;45.00;;;;;;5023639;28;20216;-82
2023/04/12 12:52:28;;;;;;;3.00;1.90;;;21.50;44.90;;;;;;5023830;28;20216;-82
2023/04/12 12:54:55;;;;;;;3.53;1.95;;;21.50;44.80;;;;;;5023588;28;20195;-82